sensor_id;sensor_type;location;lat;lon;timestamp;P1;durP1;ratioP1;P2;durP2;ratioP2
23519;SDS011;11936;50.820;4.336;2024-01-15T00:00:13;31.02;;;14.23;;
23519;SDS011;11936;50.820;4.336;2024-01-15T00:02:39;34.53;;;14.25;;
23519;SDS011;11936;50.820;4.336;2024-01-15T00:05:05;25.95;;;11.75;;
23519;SDS011;11936;50.820;4.336;2024-01-15T00:07:31;30.17;;;13.73;;
23519;SDS011;11936;50.820;4.336;2024-01-15T00:09:56;24.00;;;12.73;;
23519;SDS011;11936;50.820;4.336;2024-01-15T00:12:22;25.83;;;13.30;;
23519;SDS011;11936;50.820;4.336;2024-01-15T00:14:47;28.15;;;14.02;;
23519;SDS011;11936;50.820;4.336;2024-01-15T00:17:16;26.05;;;13.20;;
23519;SDS011;11936;50.820;4.336;2024-01-15T00:19:42;23.55;;;12.45;;
23519;SDS011;11936;50.820;4.336;2024-01-15T00:22:08;22.20;;;11.35;;
23519;SDS011;11936;50.820;4.336;2024-01-15T00:24:33;23.45;;;11.73;;
23519;SDS011;11936;50.820;4.336;2024-01-15T00:26:59;25.92;;;11.52;;
23519;SDS011;11936;50.820;4.336;2024-01-15T00:29:24;23.38;;;11.68;;
23519;SDS011;11936;50.820;4.336;2024-01-15T00:31:50;24.17;;;12.27;;
23519;SDS011;11936;50.820;4.336;2024-01-15T00:34:16;30.40;;;12.85;;
23519;SDS011;11936;50.820;4.336;2024-01-15T00:36:41;24.65;;;11.27;;
23519;SDS011;11936;50.820;4.336;2024-01-15T00:39:07;23.23;;;11.43;;
23519;SDS011;11936;50.820;4.336;2024-01-15T00:41:32;21.10;;;11.02;;
23519;SDS011;11936;50.820;4.336;2024-01-15T00:43:58;21.23;;;10.55;;
23519;SDS011;11936;50.820;4.336;2024-01-15T00:46:23;22.40;;;10.45;;
23519;SDS011;11936;50.820;4.336;2024-01-15T00:48:49;18.88;;;9.75;;
23519;SDS011;11936;50.820;4.336;2024-01-15T00:51:15;20.58;;;9.90;;
23519;SDS011;11936;50.820;4.336;2024-01-15T00:53:40;17.13;;;8.93;;
23519;SDS011;11936;50.820;4.336;2024-01-15T00:56:06;16.55;;;7.78;;
23519;SDS011;11936;50.820;4.336;2024-01-15T00:58:31;17.55;;;7.82;;
23519;SDS011;11936;50.820;4.336;2024-01-15T01:00:57;13.55;;;7.28;;
23519;SDS011;11936;50.820;4.336;2024-01-15T01:03:23;12.93;;;7.15;;
23519;SDS011;11936;50.820;4.336;2024-01-15T01:05:48;14.15;;;7.47;;
23519;SDS011;11936;50.820;4.336;2024-01-15T01:08:17;15.45;;;7.22;;
23519;SDS011;11936;50.820;4.336;2024-01-15T01:10:43;10.98;;;6.20;;
23519;SDS011;11936;50.820;4.336;2024-01-15T01:13:09;12.20;;;6.43;;
23519;SDS011;11936;50.820;4.336;2024-01-15T01:15:34;10.98;;;6.32;;
23519;SDS011;11936;50.820;4.336;2024-01-15T01:18:00;12.13;;;5.65;;
23519;SDS011;11936;50.820;4.336;2024-01-15T01:20:25;16.33;;;7.20;;
23519;SDS011;11936;50.820;4.336;2024-01-15T01:22:51;17.08;;;6.80;;
23519;SDS011;11936;50.820;4.336;2024-01-15T01:25:17;11.85;;;6.65;;
23519;SDS011;11936;50.820;4.336;2024-01-15T01:27:42;12.77;;;6.95;;
23519;SDS011;11936;50.820;4.336;2024-01-15T01:30:08;12.75;;;6.72;;
23519;SDS011;11936;50.820;4.336;2024-01-15T01:32:34;11.20;;;6.50;;
23519;SDS011;11936;50.820;4.336;2024-01-15T01:35:00;9.30;;;5.63;;
23519;SDS011;11936;50.820;4.336;2024-01-15T01:37:26;10.00;;;5.88;;
23519;SDS011;11936;50.820;4.336;2024-01-15T01:39:51;8.77;;;5.70;;
23519;SDS011;11936;50.820;4.336;2024-01-15T01:42:17;10.90;;;6.00;;
23519;SDS011;11936;50.820;4.336;2024-01-15T01:44:42;11.43;;;5.13;;
23519;SDS011;11936;50.820;4.336;2024-01-15T01:47:11;8.48;;;4.90;;
23519;SDS011;11936;50.820;4.336;2024-01-15T01:49:38;10.43;;;5.75;;
23519;SDS011;11936;50.820;4.336;2024-01-15T01:52:05;9.57;;;5.38;;
23519;SDS011;11936;50.820;4.336;2024-01-15T01:54:32;13.38;;;4.85;;
23519;SDS011;11936;50.820;4.336;2024-01-15T01:56:58;7.63;;;4.55;;
23519;SDS011;11936;50.820;4.336;2024-01-15T01:59:26;5.97;;;4.40;;
23519;SDS011;11936;50.820;4.336;2024-01-15T02:01:54;7.40;;;4.22;;
23519;SDS011;11936;50.820;4.336;2024-01-15T02:04:19;7.70;;;4.22;;
23519;SDS011;11936;50.820;4.336;2024-01-15T02:06:46;6.78;;;3.83;;
23519;SDS011;11936;50.820;4.336;2024-01-15T02:09:13;9.05;;;3.97;;
23519;SDS011;11936;50.820;4.336;2024-01-15T02:11:40;9.65;;;4.45;;
23519;SDS011;11936;50.820;4.336;2024-01-15T02:14:07;4.90;;;3.30;;
23519;SDS011;11936;50.820;4.336;2024-01-15T02:16:34;8.88;;;3.70;;
23519;SDS011;11936;50.820;4.336;2024-01-15T02:18:59;9.60;;;3.92;;
23519;SDS011;11936;50.820;4.336;2024-01-15T02:21:25;5.10;;;3.20;;
23519;SDS011;11936;50.820;4.336;2024-01-15T02:26:19;4.63;;;2.88;;
23519;SDS011;11936;50.820;4.336;2024-01-15T02:28:45;6.90;;;3.28;;
23519;SDS011;11936;50.820;4.336;2024-01-15T02:31:11;7.90;;;3.92;;
23519;SDS011;11936;50.820;4.336;2024-01-15T02:33:36;7.03;;;3.92;;
23519;SDS011;11936;50.820;4.336;2024-01-15T02:36:02;9.13;;;4.50;;
23519;SDS011;11936;50.820;4.336;2024-01-15T02:38:28;7.82;;;4.75;;
23519;SDS011;11936;50.820;4.336;2024-01-15T02:40:53;8.10;;;4.93;;
23519;SDS011;11936;50.820;4.336;2024-01-15T02:43:19;8.68;;;4.90;;
23519;SDS011;11936;50.820;4.336;2024-01-15T02:45:45;10.60;;;5.35;;
23519;SDS011;11936;50.820;4.336;2024-01-15T02:48:11;13.15;;;6.53;;
23519;SDS011;11936;50.820;4.336;2024-01-15T02:50:37;12.57;;;6.45;;
23519;SDS011;11936;50.820;4.336;2024-01-15T02:53:03;12.77;;;6.70;;
23519;SDS011;11936;50.820;4.336;2024-01-15T02:55:28;16.27;;;7.07;;
23519;SDS011;11936;50.820;4.336;2024-01-15T02:57:54;12.65;;;7.93;;
23519;SDS011;11936;50.820;4.336;2024-01-15T03:00:20;15.20;;;8.50;;
23519;SDS011;11936;50.820;4.336;2024-01-15T03:02:45;16.77;;;9.00;;
23519;SDS011;11936;50.820;4.336;2024-01-15T03:05:13;17.13;;;7.78;;
23519;SDS011;11936;50.820;4.336;2024-01-15T03:07:39;17.10;;;9.77;;
23519;SDS011;11936;50.820;4.336;2024-01-15T03:10:04;16.92;;;8.73;;
23519;SDS011;11936;50.820;4.336;2024-01-15T03:12:31;17.15;;;8.55;;
23519;SDS011;11936;50.820;4.336;2024-01-15T03:14:57;17.98;;;9.38;;
23519;SDS011;11936;50.820;4.336;2024-01-15T03:17:22;14.10;;;8.32;;
23519;SDS011;11936;50.820;4.336;2024-01-15T03:19:48;17.02;;;8.38;;
23519;SDS011;11936;50.820;4.336;2024-01-15T03:22:14;14.43;;;9.00;;
23519;SDS011;11936;50.820;4.336;2024-01-15T03:24:40;15.35;;;9.40;;
23519;SDS011;11936;50.820;4.336;2024-01-15T03:27:06;18.27;;;9.38;;
23519;SDS011;11936;50.820;4.336;2024-01-15T03:29:31;21.42;;;10.20;;
23519;SDS011;11936;50.820;4.336;2024-01-15T03:31:57;18.80;;;10.15;;
23519;SDS011;11936;50.820;4.336;2024-01-15T03:34:23;16.70;;;8.82;;
23519;SDS011;11936;50.820;4.336;2024-01-15T03:36:48;17.20;;;9.55;;
23519;SDS011;11936;50.820;4.336;2024-01-15T03:39:14;21.90;;;9.93;;
23519;SDS011;11936;50.820;4.336;2024-01-15T03:41:39;22.38;;;11.38;;
23519;SDS011;11936;50.820;4.336;2024-01-15T03:44:05;21.35;;;10.90;;
23519;SDS011;11936;50.820;4.336;2024-01-15T03:46:30;21.05;;;10.63;;
23519;SDS011;11936;50.820;4.336;2024-01-15T03:48:56;22.08;;;10.70;;
23519;SDS011;11936;50.820;4.336;2024-01-15T03:51:22;21.08;;;10.35;;
23519;SDS011;11936;50.820;4.336;2024-01-15T03:53:48;23.75;;;11.43;;
23519;SDS011;11936;50.820;4.336;2024-01-15T03:56:14;21.58;;;11.35;;
23519;SDS011;11936;50.820;4.336;2024-01-15T03:58:39;21.02;;;11.10;;
23519;SDS011;11936;50.820;4.336;2024-01-15T04:01:11;22.90;;;10.85;;
23519;SDS011;11936;50.820;4.336;2024-01-15T04:03:37;20.10;;;10.68;;
23519;SDS011;11936;50.820;4.336;2024-01-15T04:06:06;21.60;;;11.93;;
23519;SDS011;11936;50.820;4.336;2024-01-15T04:08:31;22.38;;;10.75;;
23519;SDS011;11936;50.820;4.336;2024-01-15T04:10:57;23.55;;;10.88;;
23519;SDS011;11936;50.820;4.336;2024-01-15T04:13:23;16.33;;;10.38;;
23519;SDS011;11936;50.820;4.336;2024-01-15T04:15:48;21.05;;;11.40;;
23519;SDS011;11936;50.820;4.336;2024-01-15T04:18:15;22.40;;;11.32;;
23519;SDS011;11936;50.820;4.336;2024-01-15T04:20:41;22.08;;;11.60;;
23519;SDS011;11936;50.820;4.336;2024-01-15T04:23:07;20.42;;;11.23;;
23519;SDS011;11936;50.820;4.336;2024-01-15T04:25:33;25.55;;;12.02;;
23519;SDS011;11936;50.820;4.336;2024-01-15T04:27:58;23.35;;;11.05;;
23519;SDS011;11936;50.820;4.336;2024-01-15T04:30:24;18.77;;;11.40;;
23519;SDS011;11936;50.820;4.336;2024-01-15T04:32:50;21.42;;;11.50;;
23519;SDS011;11936;50.820;4.336;2024-01-15T04:35:15;27.02;;;11.70;;
23519;SDS011;11936;50.820;4.336;2024-01-15T04:37:41;23.58;;;11.15;;
23519;SDS011;11936;50.820;4.336;2024-01-15T04:40:07;20.40;;;10.15;;
23519;SDS011;11936;50.820;4.336;2024-01-15T04:42:33;21.33;;;10.38;;
23519;SDS011;11936;50.820;4.336;2024-01-15T04:44:59;19.73;;;9.60;;
23519;SDS011;11936;50.820;4.336;2024-01-15T04:47:24;16.40;;;9.80;;
23519;SDS011;11936;50.820;4.336;2024-01-15T04:49:50;13.20;;;8.18;;
23519;SDS011;11936;50.820;4.336;2024-01-15T04:52:16;15.20;;;8.40;;
23519;SDS011;11936;50.820;4.336;2024-01-15T04:54:41;11.07;;;7.03;;
23519;SDS011;11936;50.820;4.336;2024-01-15T04:57:07;17.17;;;7.82;;
23519;SDS011;11936;50.820;4.336;2024-01-15T04:59:33;14.45;;;6.30;;
23519;SDS011;11936;50.820;4.336;2024-01-15T05:02:10;9.60;;;5.57;;
23519;SDS011;11936;50.820;4.336;2024-01-15T06:33:03;2.65;;;1.60;;
23519;SDS011;11936;50.820;4.336;2024-01-15T06:35:29;5.68;;;2.22;;
23519;SDS011;11936;50.820;4.336;2024-01-15T06:37:55;4.43;;;2.83;;
23519;SDS011;11936;50.820;4.336;2024-01-15T06:40:20;5.47;;;2.40;;
23519;SDS011;11936;50.820;4.336;2024-01-15T06:42:46;6.50;;;2.22;;
23519;SDS011;11936;50.820;4.336;2024-01-15T06:45:12;4.85;;;3.05;;
23519;SDS011;11936;50.820;4.336;2024-01-15T06:47:37;8.20;;;3.05;;
23519;SDS011;11936;50.820;4.336;2024-01-15T06:50:03;5.25;;;2.63;;
23519;SDS011;11936;50.820;4.336;2024-01-15T06:52:31;5.20;;;2.92;;
23519;SDS011;11936;50.820;4.336;2024-01-15T06:54:57;7.18;;;3.53;;
23519;SDS011;11936;50.820;4.336;2024-01-15T06:57:23;14.48;;;4.13;;
23519;SDS011;11936;50.820;4.336;2024-01-15T06:59:48;5.35;;;4.05;;
23519;SDS011;11936;50.820;4.336;2024-01-15T07:02:14;7.78;;;4.28;;
23519;SDS011;11936;50.820;4.336;2024-01-15T07:04:41;5.05;;;3.58;;
23519;SDS011;11936;50.820;4.336;2024-01-15T07:07:07;7.65;;;3.60;;
23519;SDS011;11936;50.820;4.336;2024-01-15T07:09:32;7.32;;;3.80;;
23519;SDS011;11936;50.820;4.336;2024-01-15T07:11:58;8.90;;;4.40;;
23519;SDS011;11936;50.820;4.336;2024-01-15T07:14:24;7.30;;;3.83;;
23519;SDS011;11936;50.820;4.336;2024-01-15T07:16:50;7.60;;;4.28;;
23519;SDS011;11936;50.820;4.336;2024-01-15T07:19:15;6.63;;;4.20;;
23519;SDS011;11936;50.820;4.336;2024-01-15T07:21:41;9.02;;;4.03;;
23519;SDS011;11936;50.820;4.336;2024-01-15T07:24:08;6.43;;;3.35;;
23519;SDS011;11936;50.820;4.336;2024-01-15T07:26:34;10.20;;;3.75;;
23519;SDS011;11936;50.820;4.336;2024-01-15T07:28:59;7.63;;;3.65;;
23519;SDS011;11936;50.820;4.336;2024-01-15T07:31:25;8.60;;;3.80;;
23519;SDS011;11936;50.820;4.336;2024-01-15T07:33:51;6.47;;;4.63;;
23519;SDS011;11936;50.820;4.336;2024-01-15T07:36:18;6.53;;;4.07;;
23519;SDS011;11936;50.820;4.336;2024-01-15T07:38:43;6.05;;;4.07;;
23519;SDS011;11936;50.820;4.336;2024-01-15T07:41:09;9.10;;;4.90;;
23519;SDS011;11936;50.820;4.336;2024-01-15T07:43:35;9.88;;;4.68;;
23519;SDS011;11936;50.820;4.336;2024-01-15T07:46:00;7.68;;;4.72;;
23519;SDS011;11936;50.820;4.336;2024-01-15T07:48:27;6.28;;;4.03;;
23519;SDS011;11936;50.820;4.336;2024-01-15T07:51:02;8.32;;;4.30;;
23519;SDS011;11936;50.820;4.336;2024-01-15T07:53:33;11.15;;;4.25;;
23519;SDS011;11936;50.820;4.336;2024-01-15T07:55:59;14.52;;;5.57;;
23519;SDS011;11936;50.820;4.336;2024-01-15T07:58:24;6.82;;;4.25;;
23519;SDS011;11936;50.820;4.336;2024-01-15T08:00:50;7.90;;;4.63;;
23519;SDS011;11936;50.820;4.336;2024-01-15T08:03:17;7.20;;;4.28;;
23519;SDS011;11936;50.820;4.336;2024-01-15T08:05:43;12.25;;;4.75;;
23519;SDS011;11936;50.820;4.336;2024-01-15T08:08:10;8.35;;;4.82;;
23519;SDS011;11936;50.820;4.336;2024-01-15T08:10:36;6.00;;;4.30;;
23519;SDS011;11936;50.820;4.336;2024-01-15T08:13:02;10.23;;;3.63;;
23519;SDS011;11936;50.820;4.336;2024-01-15T08:15:27;7.68;;;3.70;;
23519;SDS011;11936;50.820;4.336;2024-01-15T08:17:53;7.30;;;4.18;;
23519;SDS011;11936;50.820;4.336;2024-01-15T08:20:19;7.95;;;3.65;;
23519;SDS011;11936;50.820;4.336;2024-01-15T08:22:44;15.85;;;3.92;;
23519;SDS011;11936;50.820;4.336;2024-01-15T08:25:11;9.65;;;4.00;;
23519;SDS011;11936;50.820;4.336;2024-01-15T08:27:38;8.10;;;4.20;;
23519;SDS011;11936;50.820;4.336;2024-01-15T08:30:04;10.00;;;4.10;;
23519;SDS011;11936;50.820;4.336;2024-01-15T08:32:30;10.80;;;3.92;;
23519;SDS011;11936;50.820;4.336;2024-01-15T08:34:55;10.05;;;3.67;;
23519;SDS011;11936;50.820;4.336;2024-01-15T08:37:21;6.70;;;3.22;;
23519;SDS011;11936;50.820;4.336;2024-01-15T08:39:47;6.20;;;2.88;;
23519;SDS011;11936;50.820;4.336;2024-01-15T08:42:12;7.55;;;3.22;;
23519;SDS011;11936;50.820;4.336;2024-01-15T08:44:38;4.82;;;2.53;;
23519;SDS011;11936;50.820;4.336;2024-01-15T08:47:05;12.63;;;3.03;;
23519;SDS011;11936;50.820;4.336;2024-01-15T08:49:32;10.60;;;2.10;;
23519;SDS011;11936;50.820;4.336;2024-01-15T08:51:58;6.43;;;2.63;;
23519;SDS011;11936;50.820;4.336;2024-01-15T08:54:23;5.20;;;2.00;;
23519;SDS011;11936;50.820;4.336;2024-01-15T08:56:49;4.15;;;2.13;;
23519;SDS011;11936;50.820;4.336;2024-01-15T08:59:15;5.63;;;1.90;;
23519;SDS011;11936;50.820;4.336;2024-01-15T09:01:41;11.63;;;2.30;;
23519;SDS011;11936;50.820;4.336;2024-01-15T09:04:07;8.30;;;1.55;;
23519;SDS011;11936;50.820;4.336;2024-01-15T09:06:32;10.32;;;2.55;;
23519;SDS011;11936;50.820;4.336;2024-01-15T09:08:58;7.97;;;2.33;;
23519;SDS011;11936;50.820;4.336;2024-01-15T09:11:25;14.48;;;3.35;;
23519;SDS011;11936;50.820;4.336;2024-01-15T09:13:50;5.63;;;2.70;;
23519;SDS011;11936;50.820;4.336;2024-01-15T09:16:17;5.20;;;2.53;;
23519;SDS011;11936;50.820;4.336;2024-01-15T09:18:42;5.65;;;1.92;;
23519;SDS011;11936;50.820;4.336;2024-01-15T09:21:08;3.65;;;1.65;;
23519;SDS011;11936;50.820;4.336;2024-01-15T09:23:33;13.23;;;2.83;;
23519;SDS011;11936;50.820;4.336;2024-01-15T09:26:00;9.07;;;2.20;;
23519;SDS011;11936;50.820;4.336;2024-01-15T09:28:26;6.88;;;2.03;;
23519;SDS011;11936;50.820;4.336;2024-01-15T09:30:51;6.13;;;1.90;;
23519;SDS011;11936;50.820;4.336;2024-01-15T09:33:20;5.40;;;1.77;;
23519;SDS011;11936;50.820;4.336;2024-01-15T09:35:45;8.68;;;1.83;;
23519;SDS011;11936;50.820;4.336;2024-01-15T09:38:11;7.53;;;1.80;;
23519;SDS011;11936;50.820;4.336;2024-01-15T09:40:37;7.43;;;2.00;;
23519;SDS011;11936;50.820;4.336;2024-01-15T09:43:04;7.20;;;1.92;;
23519;SDS011;11936;50.820;4.336;2024-01-15T09:45:30;6.88;;;2.10;;
23519;SDS011;11936;50.820;4.336;2024-01-15T09:47:56;4.53;;;1.70;;
23519;SDS011;11936;50.820;4.336;2024-01-15T09:50:21;6.88;;;2.00;;
23519;SDS011;11936;50.820;4.336;2024-01-15T09:52:47;6.75;;;2.58;;
23519;SDS011;11936;50.820;4.336;2024-01-15T09:55:14;4.38;;;2.10;;
23519;SDS011;11936;50.820;4.336;2024-01-15T09:57:41;3.60;;;1.75;;
23519;SDS011;11936;50.820;4.336;2024-01-15T10:00:07;5.15;;;1.65;;
23519;SDS011;11936;50.820;4.336;2024-01-15T10:02:35;3.88;;;1.83;;
23519;SDS011;11936;50.820;4.336;2024-01-15T10:05:01;7.18;;;1.77;;
23519;SDS011;11936;50.820;4.336;2024-01-15T10:07:28;8.75;;;1.90;;
23519;SDS011;11936;50.820;4.336;2024-01-15T10:09:55;9.20;;;1.60;;
23519;SDS011;11936;50.820;4.336;2024-01-15T10:12:24;2.90;;;1.70;;
23519;SDS011;11936;50.820;4.336;2024-01-15T10:14:52;14.25;;;1.90;;
23519;SDS011;11936;50.820;4.336;2024-01-15T10:17:19;3.25;;;1.80;;
23519;SDS011;11936;50.820;4.336;2024-01-15T10:19:54;4.75;;;1.58;;
23519;SDS011;11936;50.820;4.336;2024-01-15T10:22:19;3.35;;;2.03;;
23519;SDS011;11936;50.820;4.336;2024-01-15T10:24:45;6.43;;;2.10;;
23519;SDS011;11936;50.820;4.336;2024-01-15T10:27:12;3.33;;;1.85;;
23519;SDS011;11936;50.820;4.336;2024-01-15T10:29:43;5.63;;;2.42;;
23519;SDS011;11936;50.820;4.336;2024-01-15T10:32:09;5.90;;;1.60;;
23519;SDS011;11936;50.820;4.336;2024-01-15T10:34:42;12.70;;;2.42;;
23519;SDS011;11936;50.820;4.336;2024-01-15T10:39:52;4.97;;;1.77;;
23519;SDS011;11936;50.820;4.336;2024-01-15T10:42:18;7.25;;;1.95;;
23519;SDS011;11936;50.820;4.336;2024-01-15T10:44:44;7.88;;;2.05;;
23519;SDS011;11936;50.820;4.336;2024-01-15T10:47:12;5.28;;;1.92;;
23519;SDS011;11936;50.820;4.336;2024-01-15T10:49:38;5.57;;;2.15;;
23519;SDS011;11936;50.820;4.336;2024-01-15T10:52:04;13.55;;;2.72;;
23519;SDS011;11936;50.820;4.336;2024-01-15T10:54:30;6.22;;;1.77;;
23519;SDS011;11936;50.820;4.336;2024-01-15T10:56:57;4.72;;;1.73;;
23519;SDS011;11936;50.820;4.336;2024-01-15T10:59:22;3.03;;;1.48;;
23519;SDS011;11936;50.820;4.336;2024-01-15T11:01:49;4.18;;;1.70;;
23519;SDS011;11936;50.820;4.336;2024-01-15T11:04:18;5.95;;;1.92;;
23519;SDS011;11936;50.820;4.336;2024-01-15T11:06:44;6.90;;;1.73;;
23519;SDS011;11936;50.820;4.336;2024-01-15T11:09:12;9.23;;;2.17;;
23519;SDS011;11936;50.820;4.336;2024-01-15T11:11:40;5.28;;;1.65;;
23519;SDS011;11936;50.820;4.336;2024-01-15T11:14:10;8.38;;;1.70;;
23519;SDS011;11936;50.820;4.336;2024-01-15T11:19:37;4.82;;;2.05;;
23519;SDS011;11936;50.820;4.336;2024-01-15T11:22:07;7.85;;;1.60;;
23519;SDS011;11936;50.820;4.336;2024-01-15T11:27:01;7.07;;;1.60;;
23519;SDS011;11936;50.820;4.336;2024-01-15T11:31:59;17.65;;;1.75;;
23519;SDS011;11936;50.820;4.336;2024-01-15T11:37:17;3.92;;;1.65;;
23519;SDS011;11936;50.820;4.336;2024-01-15T11:39:43;8.35;;;1.25;;
23519;SDS011;11936;50.820;4.336;2024-01-15T11:42:10;8.50;;;1.73;;
23519;SDS011;11936;50.820;4.336;2024-01-15T11:44:37;5.40;;;1.50;;
23519;SDS011;11936;50.820;4.336;2024-01-15T11:47:12;4.57;;;1.90;;
23519;SDS011;11936;50.820;4.336;2024-01-15T11:52:12;8.50;;;1.50;;
23519;SDS011;11936;50.820;4.336;2024-01-15T11:54:42;7.53;;;1.60;;
23519;SDS011;11936;50.820;4.336;2024-01-15T11:57:21;4.93;;;1.98;;
23519;SDS011;11936;50.820;4.336;2024-01-15T11:59:59;8.50;;;1.75;;
23519;SDS011;11936;50.820;4.336;2024-01-15T12:04:54;5.28;;;1.45;;
23519;SDS011;11936;50.820;4.336;2024-01-15T12:07:20;7.85;;;1.92;;
23519;SDS011;11936;50.820;4.336;2024-01-15T12:09:45;6.35;;;1.70;;
23519;SDS011;11936;50.820;4.336;2024-01-15T12:12:13;7.18;;;1.75;;
23519;SDS011;11936;50.820;4.336;2024-01-15T12:15:01;17.23;;;2.90;;
23519;SDS011;11936;50.820;4.336;2024-01-15T12:17:27;9.55;;;1.55;;
23519;SDS011;11936;50.820;4.336;2024-01-15T12:19:52;8.00;;;1.30;;
23519;SDS011;11936;50.820;4.336;2024-01-15T12:22:18;4.40;;;1.95;;
23519;SDS011;11936;50.820;4.336;2024-01-15T12:24:44;5.90;;;2.20;;
23519;SDS011;11936;50.820;4.336;2024-01-15T12:27:10;2.30;;;1.63;;
23519;SDS011;11936;50.820;4.336;2024-01-15T12:29:36;3.60;;;1.42;;
23519;SDS011;11936;50.820;4.336;2024-01-15T12:32:04;7.20;;;1.40;;
23519;SDS011;11936;50.820;4.336;2024-01-15T12:34:30;5.05;;;1.60;;
23519;SDS011;11936;50.820;4.336;2024-01-15T12:36:57;4.22;;;1.23;;
23519;SDS011;11936;50.820;4.336;2024-01-15T12:39:24;5.32;;;2.30;;
23519;SDS011;11936;50.820;4.336;2024-01-15T12:41:50;7.80;;;1.60;;
23519;SDS011;11936;50.820;4.336;2024-01-15T12:44:16;11.07;;;1.67;;
23519;SDS011;11936;50.820;4.336;2024-01-15T12:46:42;2.63;;;1.48;;
23519;SDS011;11936;50.820;4.336;2024-01-15T12:49:08;14.90;;;2.40;;
23519;SDS011;11936;50.820;4.336;2024-01-15T12:51:36;5.88;;;1.25;;
23519;SDS011;11936;50.820;4.336;2024-01-15T12:54:03;9.82;;;1.20;;
23519;SDS011;11936;50.820;4.336;2024-01-15T12:56:29;13.55;;;1.50;;
23519;SDS011;11936;50.820;4.336;2024-01-15T12:58:55;7.28;;;1.65;;
23519;SDS011;11936;50.820;4.336;2024-01-15T13:01:21;7.80;;;1.10;;
23519;SDS011;11936;50.820;4.336;2024-01-15T13:03:47;5.65;;;2.13;;
23519;SDS011;11936;50.820;4.336;2024-01-15T13:06:12;5.95;;;1.63;;
23519;SDS011;11936;50.820;4.336;2024-01-15T13:08:38;10.15;;;1.60;;
23519;SDS011;11936;50.820;4.336;2024-01-15T13:11:04;7.47;;;1.08;;
23519;SDS011;11936;50.820;4.336;2024-01-15T13:13:30;3.72;;;1.35;;
23519;SDS011;11936;50.820;4.336;2024-01-15T13:15:59;10.02;;;1.77;;
23519;SDS011;11936;50.820;4.336;2024-01-15T13:18:25;8.10;;;1.90;;
23519;SDS011;11936;50.820;4.336;2024-01-15T13:20:50;5.57;;;1.80;;
23519;SDS011;11936;50.820;4.336;2024-01-15T13:23:16;13.18;;;1.88;;
23519;SDS011;11936;50.820;4.336;2024-01-15T13:25:42;10.05;;;2.05;;
23519;SDS011;11936;50.820;4.336;2024-01-15T13:28:07;6.97;;;1.80;;
23519;SDS011;11936;50.820;4.336;2024-01-15T13:30:33;9.10;;;1.75;;
23519;SDS011;11936;50.820;4.336;2024-01-15T13:32:58;4.88;;;1.73;;
23519;SDS011;11936;50.820;4.336;2024-01-15T13:35:29;8.20;;;1.95;;
23519;SDS011;11936;50.820;4.336;2024-01-15T13:37:54;3.70;;;1.77;;
23519;SDS011;11936;50.820;4.336;2024-01-15T13:40:20;6.43;;;2.03;;
23519;SDS011;11936;50.820;4.336;2024-01-15T13:42:46;8.70;;;1.65;;
23519;SDS011;11936;50.820;4.336;2024-01-15T13:45:12;6.22;;;1.52;;
23519;SDS011;11936;50.820;4.336;2024-01-15T13:50:08;6.60;;;1.80;;
23519;SDS011;11936;50.820;4.336;2024-01-15T13:52:34;6.63;;;1.45;;
23519;SDS011;11936;50.820;4.336;2024-01-15T13:55:00;8.25;;;1.48;;
23519;SDS011;11936;50.820;4.336;2024-01-15T13:57:26;8.75;;;1.90;;
23519;SDS011;11936;50.820;4.336;2024-01-15T13:59:52;10.77;;;1.85;;
23519;SDS011;11936;50.820;4.336;2024-01-15T14:02:17;10.10;;;2.08;;
23519;SDS011;11936;50.820;4.336;2024-01-15T14:04:45;6.80;;;1.42;;
23519;SDS011;11936;50.820;4.336;2024-01-15T14:07:10;3.63;;;1.38;;
23519;SDS011;11936;50.820;4.336;2024-01-15T14:09:36;5.05;;;1.50;;
23519;SDS011;11936;50.820;4.336;2024-01-15T14:12:02;8.05;;;2.20;;
23519;SDS011;11936;50.820;4.336;2024-01-15T14:14:28;6.65;;;1.30;;
23519;SDS011;11936;50.820;4.336;2024-01-15T14:16:54;7.53;;;1.85;;
23519;SDS011;11936;50.820;4.336;2024-01-15T14:19:19;4.05;;;1.60;;
23519;SDS011;11936;50.820;4.336;2024-01-15T14:21:45;5.47;;;2.22;;
23519;SDS011;11936;50.820;4.336;2024-01-15T14:24:11;11.02;;;1.83;;
23519;SDS011;11936;50.820;4.336;2024-01-15T14:26:37;9.50;;;1.88;;
23519;SDS011;11936;50.820;4.336;2024-01-15T14:29:02;12.10;;;1.75;;
23519;SDS011;11936;50.820;4.336;2024-01-15T14:31:31;4.18;;;1.45;;
23519;SDS011;11936;50.820;4.336;2024-01-15T14:33:58;7.32;;;1.27;;
23519;SDS011;11936;50.820;4.336;2024-01-15T14:36:24;5.38;;;1.08;;
23519;SDS011;11936;50.820;4.336;2024-01-15T14:38:50;5.68;;;1.42;;
23519;SDS011;11936;50.820;4.336;2024-01-15T14:41:15;3.20;;;1.45;;
23519;SDS011;11936;50.820;4.336;2024-01-15T14:43:44;6.25;;;1.60;;
23519;SDS011;11936;50.820;4.336;2024-01-15T14:46:10;5.32;;;1.58;;
23519;SDS011;11936;50.820;4.336;2024-01-15T14:48:36;5.30;;;1.20;;
23519;SDS011;11936;50.820;4.336;2024-01-15T14:51:02;3.78;;;1.30;;
23519;SDS011;11936;50.820;4.336;2024-01-15T14:53:28;6.35;;;1.48;;
23519;SDS011;11936;50.820;4.336;2024-01-15T14:55:54;3.15;;;1.33;;
23519;SDS011;11936;50.820;4.336;2024-01-15T15:00:48;3.65;;;1.63;;
23519;SDS011;11936;50.820;4.336;2024-01-15T15:03:17;3.15;;;1.13;;
23519;SDS011;11936;50.820;4.336;2024-01-15T15:05:43;5.85;;;1.05;;
23519;SDS011;11936;50.820;4.336;2024-01-15T15:08:10;1.63;;;0.85;;
23519;SDS011;11936;50.820;4.336;2024-01-15T15:10:39;2.35;;;1.08;;
23519;SDS011;11936;50.820;4.336;2024-01-15T15:13:05;6.00;;;1.70;;
23519;SDS011;11936;50.820;4.336;2024-01-15T15:15:32;2.78;;;0.80;;
23519;SDS011;11936;50.820;4.336;2024-01-15T15:17:57;4.60;;;1.50;;
23519;SDS011;11936;50.820;4.336;2024-01-15T15:20:23;1.88;;;1.00;;
23519;SDS011;11936;50.820;4.336;2024-01-15T15:22:49;1.80;;;0.90;;
23519;SDS011;11936;50.820;4.336;2024-01-15T15:25:14;3.20;;;0.98;;
23519;SDS011;11936;50.820;4.336;2024-01-15T15:27:40;1.90;;;0.80;;
23519;SDS011;11936;50.820;4.336;2024-01-15T15:30:06;2.92;;;1.00;;
23519;SDS011;11936;50.820;4.336;2024-01-15T15:32:32;2.80;;;1.10;;
23519;SDS011;11936;50.820;4.336;2024-01-15T15:34:58;3.17;;;1.00;;
23519;SDS011;11936;50.820;4.336;2024-01-15T15:37:24;2.97;;;1.52;;
23519;SDS011;11936;50.820;4.336;2024-01-15T15:39:49;3.20;;;1.30;;
23519;SDS011;11936;50.820;4.336;2024-01-15T15:42:15;3.80;;;1.40;;
23519;SDS011;11936;50.820;4.336;2024-01-15T15:44:41;7.15;;;1.58;;
23519;SDS011;11936;50.820;4.336;2024-01-15T15:47:11;4.78;;;1.73;;
23519;SDS011;11936;50.820;4.336;2024-01-15T15:49:39;11.30;;;1.85;;
23519;SDS011;11936;50.820;4.336;2024-01-15T15:52:05;6.30;;;1.55;;
23519;SDS011;11936;50.820;4.336;2024-01-15T15:54:30;3.60;;;1.50;;
23519;SDS011;11936;50.820;4.336;2024-01-15T15:56:56;3.78;;;1.92;;
23519;SDS011;11936;50.820;4.336;2024-01-15T15:59:21;4.68;;;1.73;;
23519;SDS011;11936;50.820;4.336;2024-01-15T16:01:49;5.05;;;1.80;;
23519;SDS011;11936;50.820;4.336;2024-01-15T16:04:15;3.83;;;1.92;;
23519;SDS011;11936;50.820;4.336;2024-01-15T16:06:41;11.68;;;2.63;;
23519;SDS011;11936;50.820;4.336;2024-01-15T16:09:12;8.00;;;2.00;;
23519;SDS011;11936;50.820;4.336;2024-01-15T16:11:38;11.65;;;2.42;;
23519;SDS011;11936;50.820;4.336;2024-01-15T16:14:04;6.35;;;2.53;;
23519;SDS011;11936;50.820;4.336;2024-01-15T16:16:30;9.40;;;1.63;;
23519;SDS011;11936;50.820;4.336;2024-01-15T16:18:57;7.70;;;2.53;;
23519;SDS011;11936;50.820;4.336;2024-01-15T16:21:22;7.85;;;2.22;;
23519;SDS011;11936;50.820;4.336;2024-01-15T16:23:48;4.85;;;1.95;;
23519;SDS011;11936;50.820;4.336;2024-01-15T16:26:14;17.85;;;3.00;;
23519;SDS011;11936;50.820;4.336;2024-01-15T16:28:40;10.77;;;1.90;;